Time;durP1;ratioP1;P1;durP2;ratioP2;P2;SDS_P1;SDS_P2;PMS_P1;PMS_P2;Temp;Humidity;BMP_temperature;BMP_pressure;BME280_temperature;BME280_humidity;BME280_pressure;Samples;Min_cycle;Max_cycle;Signal;HPM_P1;HPM_P2
2022/11/11 00:01:37;;;;;;;74.90;31.55;;;10.10;99.90;;;;;;5094525;28;20024;-61
2022/11/11 00:04:03;;;;;;;104.22;30.17;;;10.20;99.90;;;;;;5095561;28;20085;-61
2022/11/11 00:06:29;;;;;;;100.90;24.33;;;10.10;99.90;;;;;;5095212;28;20078;-61
2022/11/11 00:08:55;;;;;;;87.40;24.10;;;10.00;99.90;;;;;;5095125;28;20043;-61
2022/11/11 00:11:20;;;;;;;91.35;24.33;;;9.90;99.90;;;;;;5094515;28;20024;-61
2022/11/11 00:13:46;;;;;;;61.67;15.40;;;10.00;99.90;;;;;;5094833;28;20032;-61
2022/11/11 00:16:17;;;;;;;49.28;14.18;;;10.00;99.90;;;;;;5094869;28;20020;-61
2022/11/11 00:26:49;;;;;;;26.77;12.63;;;10.00;99.90;;;;;;5093163;28;20074;-61
2022/11/11 00:29:14;;;;;;;37.40;12.60;;;10.00;99.90;;;;;;5094519;28;20520;-61
2022/11/11 00:32:21;;;;;;;46.03;11.68;;;10.00;99.90;;;;;;5094910;28;20036;-61
2022/11/11 00:34:26;;;;;;;66.05;11.68;;;10.00;99.90;;;;;;5094237;28;20032;-61
2022/11/11 00:36:52;;;;;;;42.42;11.40;;;10.00;99.90;;;;;;5094464;28;20463;-61
2022/11/11 00:39:17;;;;;;;45.47;10.48;;;9.90;99.90;;;;;;5094045;28;20051;-61
2022/11/11 00:41:43;;;;;;;83.55;11.30;;;10.00;99.90;;;;;;5094469;28;20047;-61
2022/11/11 00:44:09;;;;;;;51.92;11.65;;;9.90;99.90;;;;;;5094216;28;20088;-61
2022/11/11 00:52:02;;;;;;;67.00;13.05;;;9.80;99.90;;;;;;5094212;28;20018;-61
2022/11/11 00:54:28;;;;;;;56.10;11.93;;;9.80;99.90;;;;;;5093809;28;20562;-61
2022/11/11 00:56:54;;;;;;;36.67;10.73;;;9.70;99.90;;;;;;5094053;28;20028;-61
2022/11/11 00:59:19;;;;;;;54.00;10.77;;;9.80;99.90;;;;;;5092823;28;20020;-61
2022/11/11 01:01:45;;;;;;;43.65;9.05;;;9.80;99.90;;;;;;5093943;28;20032;-61
2022/11/11 01:04:11;;;;;;;43.38;10.20;;;9.80;99.90;;;;;;5093862;28;20027;-61
2022/11/11 01:06:37;;;;;;;38.92;14.15;;;9.70;99.90;;;;;;5093686;28;20467;-61
2022/11/11 01:09:06;;;;;;;51.08;10.77;;;9.70;99.90;;;;;;5093417;28;20440;-61
2022/11/11 01:11:32;;;;;;;53.67;9.88;;;9.60;99.90;;;;;;5093558;28;20107;-61
2022/11/11 01:13:58;;;;;;;81.18;11.45;;;9.60;99.90;;;;;;5093958;28;20031;-62
2022/11/11 01:16:26;;;;;;;37.67;8.82;;;9.50;99.90;;;;;;5093665;28;20024;-61
2022/11/11 01:18:53;;;;;;;51.65;11.27;;;9.60;99.90;;;;;;5093530;28;20032;-61
2022/11/11 01:21:21;;;;;;;71.53;10.93;;;9.50;99.90;;;;;;5093477;28;20016;-62
2022/11/11 01:23:48;;;;;;;46.55;9.98;;;9.60;99.90;;;;;;5093338;28;20052;-61
2022/11/11 01:26:14;;;;;;;71.82;10.07;;;9.60;99.90;;;;;;5093027;28;20035;-61
2022/11/11 01:28:40;;;;;;;54.65;10.45;;;9.50;99.90;;;;;;5093186;28;20040;-61
2022/11/11 01:31:08;;;;;;;47.67;10.75;;;9.50;99.90;;;;;;5093346;28;20028;-61
2022/11/11 01:33:34;;;;;;;39.03;11.15;;;9.50;99.90;;;;;;5093256;28;20021;-62
2022/11/11 01:36:09;;;;;;;29.27;9.20;;;9.60;99.90;;;;;;5092998;28;20479;-61
2022/11/11 01:38:35;;;;;;;30.27;10.15;;;9.60;99.90;;;;;;5092607;28;20508;-61
2022/11/11 01:41:31;;;;;;;21.42;7.72;;;9.40;99.90;;;;;;5093045;28;20032;-61
2022/11/11 01:43:46;;;;;;;26.25;8.57;;;9.50;99.90;;;;;;5093014;28;20044;-61
2022/11/11 01:46:33;;;;;;;27.73;9.57;;;9.50;99.90;;;;;;5093402;28;20086;-61
2022/11/11 01:49:18;;;;;;;22.42;8.57;;;9.50;99.90;;;;;;5093417;28;20478;-61
2022/11/11 01:51:53;;;;;;;23.05;9.43;;;9.50;99.90;;;;;;5092481;28;20021;-62
2022/11/11 01:54:24;;;;;;;45.53;10.45;;;9.50;99.90;;;;;;5093134;28;20044;-61
2022/11/11 01:56:58;;;;;;;26.52;8.65;;;9.40;99.90;;;;;;5092822;28;20078;-61
2022/11/11 01:59:25;;;;;;;29.27;9.07;;;9.40;99.90;;;;;;5092795;28;20031;-61
2022/11/11 02:01:51;;;;;;;29.90;10.43;;;9.40;99.90;;;;;;5092661;28;20028;-61
2022/11/11 02:07:06;;;;;;;41.80;9.65;;;9.30;99.90;;;;;;5092485;28;20042;-61
2022/11/11 02:09:33;;;;;;;38.35;10.50;;;9.10;99.90;;;;;;5092260;28;20059;-61
2022/11/11 02:14:50;;;;;;;30.25;9.93;;;9.00;99.90;;;;;;5092392;28;20455;-61
2022/11/11 02:17:16;;;;;;;26.80;9.95;;;9.20;99.90;;;;;;5092653;28;20035;-61
2022/11/11 02:20:02;;;;;;;25.50;9.20;;;9.10;99.90;;;;;;5092303;28;20065;-61
2022/11/11 02:22:47;;;;;;;28.77;11.80;;;9.10;99.90;;;;;;5091836;28;20406;-61
2022/11/11 02:25:17;;;;;;;35.88;10.75;;;9.10;99.90;;;;;;5092097;28;20032;-62
2022/11/11 02:27:48;;;;;;;62.17;13.65;;;9.00;99.90;;;;;;5092141;28;20478;-61
2022/11/11 02:30:15;;;;;;;37.08;12.38;;;9.00;99.90;;;;;;5092278;28;20442;-61
2022/11/11 02:32:47;;;;;;;37.20;12.85;;;9.00;99.90;;;;;;5092409;28;20070;-61
2022/11/11 02:35:17;;;;;;;20.88;10.38;;;9.00;99.90;;;;;;5091491;28;20027;-61
2022/11/11 02:37:45;;;;;;;30.63;12.15;;;9.00;99.90;;;;;;5092143;28;20026;-61
2022/11/11 02:40:22;;;;;;;33.70;9.18;;;9.00;99.90;;;;;;5091961;28;20028;-61
2022/11/11 02:42:48;;;;;;;36.38;11.45;;;9.00;99.90;;;;;;5091638;28;20094;-61
2022/11/11 02:45:13;;;;;;;24.70;9.25;;;8.90;99.90;;;;;;5092404;28;20431;-61
2022/11/11 02:47:39;;;;;;;53.85;11.55;;;8.80;99.90;;;;;;5091876;28;20475;-61
2022/11/11 02:50:05;;;;;;;37.80;10.48;;;8.80;99.90;;;;;;5091481;28;20043;-61
2022/11/11 02:52:32;;;;;;;22.50;10.85;;;8.80;99.90;;;;;;5092061;28;20024;-61
2022/11/11 02:54:57;;;;;;;13.23;7.72;;;8.70;99.90;;;;;;5092322;28;20047;-61
2022/11/11 02:57:23;;;;;;;14.90;8.95;;;8.60;99.90;;;;;;5091955;28;20120;-61
2022/11/11 02:59:49;;;;;;;11.45;6.95;;;8.70;99.90;;;;;;5092130;28;20032;-61
2022/11/11 03:02:14;;;;;;;22.92;8.73;;;8.60;99.90;;;;;;5091657;28;20020;-61
2022/11/11 03:04:40;;;;;;;17.35;8.98;;;8.50;99.90;;;;;;5091418;28;20024;-61
2022/11/11 03:07:07;;;;;;;10.65;7.22;;;8.50;99.90;;;;;;5091716;28;20506;-61
2022/11/11 03:09:33;;;;;;;11.43;8.68;;;8.60;99.90;;;;;;5091880;28;20040;-61
2022/11/11 03:11:59;;;;;;;8.70;7.00;;;8.50;99.90;;;;;;5091692;28;20086;-61
2022/11/11 03:14:24;;;;;;;11.75;7.78;;;8.60;99.90;;;;;;5091795;28;20103;-61
2022/11/11 03:19:34;;;;;;;8.23;6.90;;;8.50;99.90;;;;;;5091873;28;20039;-61
2022/11/11 03:22:02;;;;;;;11.30;7.47;;;8.60;99.90;;;;;;5075769;28;20051;-61
2022/11/11 03:25:36;;;;;;;20.23;12.85;;;8.60;99.90;;;;;;5096035;28;20490;-60
2022/11/11 03:27:14;;;;;;;14.88;10.10;;;8.60;99.90;;;;;;5096003;28;20040;-61
2022/11/11 03:29:41;;;;;;;12.70;8.85;;;8.50;99.90;;;;;;5095784;28;20035;-61
2022/11/11 03:32:08;;;;;;;13.52;8.38;;;8.50;99.90;;;;;;5095856;28;20028;-61
2022/11/11 03:34:34;;;;;;;11.95;7.30;;;8.50;99.90;;;;;;5095630;28;20026;-61
2022/11/11 03:39:43;;;;;;;;;;;8.50;99.90;;;;;;5096757;28;20078;-61
2022/11/11 03:42:09;;;;;;;9.80;7.65;;;8.50;99.90;;;;;;5095895;28;20340;-61
2022/11/11 03:44:35;;;;;;;15.20;8.65;;;8.40;99.90;;;;;;5096025;28;20028;-61
2022/11/11 03:47:00;;;;;;;14.15;7.40;;;8.50;99.90;;;;;;5095864;28;20024;-61
2022/11/11 03:49:26;;;;;;;14.05;7.88;;;8.40;99.90;;;;;;5095343;28;20020;-61
2022/11/11 03:51:52;;;;;;;16.65;7.80;;;8.40;99.90;;;;;;5095571;28;20103;-61
2022/11/11 03:54:17;;;;;;;21.33;7.03;;;8.40;99.90;;;;;;5095673;28;20528;-61
2022/11/11 03:56:43;;;;;;;15.48;7.57;;;8.40;99.90;;;;;;5095535;28;20020;-61
2022/11/11 03:59:09;;;;;;;23.17;8.05;;;8.40;99.90;;;;;;5095522;28;20380;-61
2022/11/11 04:16:04;;;;;;;68.20;10.50;;;8.40;99.90;;;;;;5095226;28;20081;-61
2022/11/11 04:18:02;;;;;;;45.30;9.77;;;8.40;99.90;;;;;;5094659;28;20448;-61
2022/11/11 04:23:12;;;;;;;45.88;10.43;;;8.30;99.90;;;;;;5095380;28;20081;-61
2022/11/11 04:25:52;;;;;;;102.40;13.10;;;8.30;99.90;;;;;;5094806;28;20028;-61
2022/11/11 04:31:02;;;;;;;53.45;9.75;;;8.20;99.90;;;;;;5094955;28;20105;-61
2022/11/11 04:33:27;;;;;;;43.70;10.20;;;8.20;99.90;;;;;;5092893;28;20489;-61
2022/11/11 04:35:53;;;;;;;49.40;9.35;;;8.10;99.90;;;;;;5094819;28;20048;-61
2022/11/11 04:41:03;;;;;;;;;;;8.20;99.90;;;;;;5095990;28;20134;-61
2022/11/11 04:43:30;;;;;;;25.95;9.57;;;8.20;99.90;;;;;;5094535;28;19916;-61
2022/11/11 04:46:01;;;;;;;34.35;8.95;;;8.20;99.90;;;;;;5094263;28;20398;-61
2022/11/11 04:48:27;;;;;;;22.42;9.18;;;8.10;99.90;;;;;;5094508;28;20523;-61
2022/11/11 04:50:53;;;;;;;19.45;9.05;;;8.10;99.90;;;;;;5094687;28;20099;-61
2022/11/11 04:53:18;;;;;;;32.42;11.63;;;8.10;99.90;;;;;;5094216;28;20067;-61
2022/11/11 04:58:34;;;;;;;16.83;10.68;;;8.00;99.90;;;;;;5094277;28;20589;-61
2022/11/11 05:01:00;;;;;;;21.23;8.05;;;8.00;99.90;;;;;;5093998;28;20134;-61
2022/11/11 05:03:26;;;;;;;21.83;11.77;;;8.00;99.90;;;;;;5094343;28;20116;-61
2022/11/11 05:08:55;;;;;;;20.48;12.57;;;8.00;99.90;;;;;;5094091;28;20076;-61
2022/11/11 05:11:30;;;;;;;20.92;14.73;;;8.00;99.90;;;;;;5094342;28;20077;-61
2022/11/11 05:22:17;;;;;;;23.73;11.63;;;7.90;99.90;;;;;;5093820;28;20050;-61
2022/11/11 05:27:28;;;;;;;22.80;12.70;;;8.00;99.90;;;;;;5093562;28;20097;-61
2022/11/11 05:29:54;;;;;;;24.55;15.35;;;8.00;99.90;;;;;;5093589;28;20463;-61
2022/11/11 05:32:21;;;;;;;25.73;16.75;;;7.90;99.90;;;;;;5093433;28;20020;-61
2022/11/11 05:34:47;;;;;;;15.45;12.00;;;7.90;99.90;;;;;;5093352;28;20037;-61
2022/11/11 05:37:13;;;;;;;25.60;10.50;;;8.00;99.90;;;;;;5093530;28;20022;-61
2022/11/11 05:39:39;;;;;;;26.95;16.27;;;7.90;99.90;;;;;;5093142;28;20488;-61
2022/11/11 05:42:06;;;;;;;30.92;12.85;;;7.90;99.90;;;;;;5092864;28;20055;-61
2022/11/11 05:44:31;;;;;;;35.45;20.08;;;7.90;99.90;;;;;;5092649;28;20024;-61
2022/11/11 05:46:57;;;;;;;45.75;21.65;;;7.90;99.90;;;;;;5093134;28;20032;-61
2022/11/11 05:49:24;;;;;;;44.85;14.52;;;7.90;99.90;;;;;;5092927;28;20085;-61
2022/11/11 05:51:50;;;;;;;25.42;12.55;;;7.90;99.90;;;;;;5093137;28;20031;-61
2022/11/11 05:54:16;;;;;;;27.63;12.23;;;7.90;99.90;;;;;;5093190;28;20020;-61
2022/11/11 05:56:42;;;;;;;19.50;12.05;;;7.90;99.90;;;;;;5092951;28;20016;-61
2022/11/11 05:59:08;;;;;;;16.65;13.57;;;7.90;99.90;;;;;;5092696;28;20174;-61
2022/11/11 06:01:35;;;;;;;18.52;10.40;;;7.90;99.90;;;;;;5092695;28;20027;-61
2022/11/11 06:04:01;;;;;;;21.90;12.73;;;7.80;99.90;;;;;;5093027;28;20024;-61
2022/11/11 06:06:26;;;;;;;21.33;13.25;;;7.80;99.90;;;;;;5093004;28;20032;-61
2022/11/11 06:08:52;;;;;;;17.63;10.95;;;7.80;99.90;;;;;;5092965;28;20043;-61
2022/11/11 06:11:18;;;;;;;11.50;10.30;;;7.90;99.90;;;;;;5093112;28;20038;-61
2022/11/11 06:13:44;;;;;;;21.67;10.88;;;7.90;99.90;;;;;;5092317;28;20478;-61
2022/11/11 06:16:10;;;;;;;19.50;13.02;;;8.00;99.90;;;;;;5093134;28;20030;-61
2022/11/11 06:18:35;;;;;;;16.98;11.30;;;7.90;99.90;;;;;;5092901;28;20040;-61
2022/11/11 06:21:01;;;;;;;19.33;12.68;;;7.90;99.90;;;;;;5092620;28;20042;-61
2022/11/11 06:23:28;;;;;;;14.70;10.02;;;7.80;99.90;;;;;;5092352;28;20042;-61
2022/11/11 06:26:12;;;;;;;18.00;11.52;;;7.90;99.90;;;;;;5092571;28;20115;-61
2022/11/11 06:28:49;;;;;;;12.50;10.32;;;7.90;99.90;;;;;;5091790;28;20138;-61
2022/11/11 06:31:20;;;;;;;18.52;12.05;;;7.80;99.90;;;;;;5092707;28;20032;-61
2022/11/11 06:33:45;;;;;;;10.57;8.20;;;7.80;99.90;;;;;;5092887;28;20016;-61
2022/11/11 06:36:13;;;;;;;15.60;10.52;;;7.90;99.90;;;;;;5092059;28;20028;-61
2022/11/11 06:38:40;;;;;;;13.32;9.82;;;7.90;99.90;;;;;;5092115;28;20028;-61
2022/11/11 06:41:06;;;;;;;12.52;9.60;;;7.80;99.90;;;;;;5092245;28;20482;-61
2022/11/11 06:43:33;;;;;;;15.98;10.95;;;7.90;99.90;;;;;;5092113;28;20510;-61
2022/11/11 06:45:59;;;;;;;15.93;10.10;;;7.90;99.90;;;;;;5092300;28;20117;-61
2022/11/11 06:48:27;;;;;;;10.43;7.82;;;7.80;99.90;;;;;;5092343;28;20497;-61
2022/11/11 06:50:54;;;;;;;11.35;8.60;;;7.90;99.90;;;;;;5091907;28;20325;-61
2022/11/11 06:53:21;;;;;;;10.85;7.78;;;7.80;99.90;;;;;;5092338;28;20027;-61
2022/11/11 06:55:47;;;;;;;14.40;8.20;;;7.80;99.90;;;;;;5092254;28;20020;-61
2022/11/11 06:58:16;;;;;;;10.30;8.48;;;7.70;99.90;;;;;;5092346;28;20024;-61
2022/11/11 07:00:42;;;;;;;29.75;16.98;;;7.80;99.90;;;;;;5091916;28;20056;-61
2022/11/11 07:03:11;;;;;;;15.07;10.00;;;7.70;99.90;;;;;;5092242;28;20028;-61
2022/11/11 07:05:37;;;;;;;17.98;13.77;;;7.70;99.90;;;;;;5091832;28;20031;-61
2022/11/11 07:08:05;;;;;;;15.70;9.45;;;7.70;99.90;;;;;;5091772;28;20493;-61
2022/11/11 07:10:33;;;;;;;14.48;10.75;;;7.60;99.90;;;;;;5092082;28;20016;-61
2022/11/11 07:12:59;;;;;;;16.58;10.50;;;7.70;99.90;;;;;;5091424;28;20032;-61
2022/11/11 07:15:25;;;;;;;16.23;12.55;;;7.70;99.90;;;;;;5091596;28;20032;-61
2022/11/11 07:17:51;;;;;;;14.68;11.85;;;7.70;99.90;;;;;;5091915;28;20032;-61
2022/11/11 07:20:17;;;;;;;13.77;10.95;;;7.70;99.90;;;;;;5092032;28;20111;-61
2022/11/11 07:22:42;;;;;;;15.10;10.95;;;7.70;99.90;;;;;;5091776;28;20020;-61
2022/11/11 07:25:08;;;;;;;13.75;11.90;;;7.80;99.90;;;;;;5091628;28;20505;-61
2022/11/11 07:27:40;;;;;;;12.30;10.93;;;7.90;99.90;;;;;;5089888;28;20029;-61
2022/11/11 07:30:07;;;;;;;12.25;10.63;;;8.00;99.90;;;;;;5091388;28;20111;-61
2022/11/11 07:32:33;;;;;;;8.88;7.75;;;8.30;99.90;;;;;;5091425;28;20482;-61
2022/11/11 07:34:59;;;;;;;11.55;9.63;;;8.40;99.90;;;;;;5091340;28;20027;-61
2022/11/11 07:37:26;;;;;;;11.10;9.95;;;8.50;99.90;;;;;;5091762;28;20032;-61
2022/11/11 07:39:51;;;;;;;12.80;11.50;;;9.50;99.90;;;;;;5090466;28;20078;-61
2022/11/11 07:42:17;;;;;;;13.02;11.77;;;10.10;99.90;;;;;;5091436;28;20142;-61
2022/11/11 07:44:43;;;;;;;6.50;5.25;;;10.70;99.90;;;;;;5091611;28;20020;-61
2022/11/11 07:47:09;;;;;;;6.63;5.97;;;10.80;99.90;;;;;;5091325;28;20435;-61
2022/11/11 07:49:35;;;;;;;9.77;8.80;;;11.10;99.90;;;;;;5091268;28;20118;-61
2022/11/11 07:52:01;;;;;;;17.67;15.85;;;11.40;99.90;;;;;;5091168;28;20171;-61
2022/11/11 07:54:26;;;;;;;9.23;6.90;;;12.20;99.90;;;;;;5091082;28;20110;-61
2022/11/11 07:56:52;;;;;;;6.13;5.53;;;12.60;99.90;;;;;;5091370;28;20499;-61
2022/11/11 07:59:18;;;;;;;5.22;4.72;;;13.50;99.90;;;;;;5091506;28;20108;-61
2022/11/11 08:01:44;;;;;;;5.40;4.20;;;14.20;99.90;;;;;;5091189;28;20391;-61
2022/11/11 08:04:09;;;;;;;6.97;4.50;;;14.30;99.90;;;;;;5091127;28;20020;-61
2022/11/11 08:06:35;;;;;;;4.60;2.58;;;14.90;99.90;;;;;;5091808;28;20047;-61
2022/11/11 08:09:01;;;;;;;5.82;4.70;;;15.60;99.90;;;;;;5093679;28;20042;-61
2022/11/11 08:14:11;;;;;;;3.45;2.92;;;15.70;99.90;;;;;;5095196;28;20222;-61
2022/11/11 08:16:36;;;;;;;5.43;3.20;;;15.50;99.90;;;;;;5094815;28;20013;-61
2022/11/11 08:19:02;;;;;;;4.82;3.50;;;15.50;99.90;;;;;;5094839;28;20394;-61
2022/11/11 08:21:28;;;;;;;4.07;3.28;;;16.20;99.90;;;;;;5095046;28;20135;-61
2022/11/11 08:23:54;;;;;;;4.13;3.10;;;16.30;99.90;;;;;;5094282;28;20028;-61
2022/11/11 08:26:22;;;;;;;3.67;2.40;;;17.00;99.90;;;;;;5094622;28;20107;-61
2022/11/11 08:28:50;;;;;;;3.33;2.70;;;17.30;99.90;;;;;;5094410;28;20032;-61
2022/11/11 08:31:15;;;;;;;3.58;2.58;;;17.00;99.90;;;;;;5094530;28;20103;-61
2022/11/11 08:33:41;;;;;;;4.47;3.13;;;17.40;99.90;;;;;;5094608;28;20103;-61
2022/11/11 08:36:09;;;;;;;3.10;2.70;;;17.60;99.90;;;;;;5094560;28;20329;-61
2022/11/11 08:38:35;;;;;;;4.25;2.40;;;19.50;99.90;;;;;;5093960;28;20036;-62
2022/11/11 08:41:04;;;;;;;3.58;2.67;;;18.30;99.90;;;;;;5094312;28;20390;-61
2022/11/11 08:43:31;;;;;;;4.97;2.90;;;17.70;99.90;;;;;;5094474;28;20044;-61
2022/11/11 08:45:58;;;;;;;2.78;2.20;;;18.00;99.90;;;;;;5094670;28;20471;-61
2022/11/11 08:48:24;;;;;;;3.25;2.30;;;18.70;99.90;;;;;;5094805;28;20020;-61
2022/11/11 08:50:51;;;;;;;3.53;2.65;;;18.80;99.90;;;;;;5094049;28;20020;-61
2022/11/11 08:53:18;;;;;;;6.57;3.10;;;19.40;99.90;;;;;;5093931;28;20032;-61
2022/11/11 08:55:44;;;;;;;10.13;7.10;;;19.60;99.90;;;;;;5094331;28;20454;-61
2022/11/11 08:58:10;;;;;;;8.63;5.90;;;19.50;99.90;;;;;;5094130;28;20056;-61
2022/11/11 09:00:36;;;;;;;6.15;3.80;;;19.60;99.90;;;;;;5093958;28;20024;-61
2022/11/11 09:03:04;;;;;;;6.38;3.50;;;19.50;99.90;;;;;;5093987;28;20386;-61
2022/11/11 09:05:30;;;;;;;6.07;4.82;;;20.90;99.90;;;;;;5093740;28;20028;-61
2022/11/11 09:07:59;;;;;;;6.00;3.45;;;21.30;99.90;;;;;;5093453;28;20028;-61
2022/11/11 09:10:25;;;;;;;3.45;3.13;;;21.10;99.90;;;;;;5093829;28;20077;-61
2022/11/11 09:12:56;;;;;;;3.33;3.03;;;21.10;99.90;;;;;;5094086;28;20031;-61
2022/11/11 09:15:21;;;;;;;3.03;2.13;;;22.50;99.90;;;;;;5093731;28;20028;-61
2022/11/11 09:17:47;;;;;;;3.35;2.00;;;21.80;99.90;;;;;;5093808;28;20020;-61
2022/11/11 09:20:13;;;;;;;4.20;1.98;;;21.80;99.90;;;;;;5092352;28;20485;-62
2022/11/11 09:22:46;;;;;;;3.55;2.65;;;23.10;99.90;;;;;;5092963;28;20107;-61
2022/11/11 09:25:12;;;;;;;;;;;22.30;99.90;;;;;;5093999;28;20024;-61
2022/11/11 09:27:38;;;;;;;4.20;2.40;;;21.70;99.90;;;;;;5093878;28;20014;-61
2022/11/11 09:30:05;;;;;;;3.72;2.35;;;21.40;99.90;;;;;;5093510;28;20043;-62
2022/11/11 09:32:31;;;;;;;5.78;3.13;;;21.90;99.90;;;;;;5093522;28;20085;-62
2022/11/11 09:34:57;;;;;;;4.25;3.20;;;22.10;99.90;;;;;;5091814;28;20433;-61
2022/11/11 09:37:23;;;;;;;4.32;2.85;;;22.60;99.90;;;;;;5093085;28;20088;-62
2022/11/11 09:39:48;;;;;;;5.80;3.13;;;22.70;99.90;;;;;;5093572;28;20039;-62
2022/11/11 09:42:32;;;;;;;5.60;2.90;;;21.50;99.90;;;;;;5092857;28;20048;-61
2022/11/11 09:45:04;;;;;;;;;;;21.30;99.90;;;;;;5093701;28;20493;-61
2022/11/11 09:47:39;;;;;;;6.65;3.70;;;22.80;99.90;;;;;;5093036;28;20370;-61
2022/11/11 09:50:10;;;;;;;7.75;3.58;;;22.90;99.90;;;;;;5092892;28;20027;-61
2022/11/11 09:52:48;;;;;;;6.10;3.13;;;22.20;99.90;;;;;;5093248;28;20394;-61
2022/11/11 09:55:40;;;;;;;6.15;3.60;;;23.10;99.90;;;;;;5092653;28;20058;-62
2022/11/11 09:58:19;;;;;;;4.63;3.00;;;21.20;99.90;;;;;;5092725;28;20028;-61
2022/11/11 10:00:50;;;;;;;4.93;3.33;;;21.30;99.90;;;;;;5092603;28;20039;-61
2022/11/11 10:03:22;;;;;;;4.53;3.00;;;21.50;99.90;;;;;;5092569;28;20115;-62
2022/11/11 10:06:06;;;;;;;5.13;3.38;;;22.90;99.90;;;;;;5092200;28;20429;-61
2022/11/11 10:08:34;;;;;;;4.68;3.10;;;21.90;99.90;;;;;;5092654;28;20036;-61
2022/11/11 10:11:01;;;;;;;9.48;2.60;;;22.40;99.90;;;;;;5092858;28;20081;-61
2022/11/11 10:13:32;;;;;;;5.55;3.38;;;23.00;99.90;;;;;;5092566;28;20020;-62
2022/11/11 10:16:29;;;;;;;5.78;3.38;;;23.60;99.90;;;;;;5092421;28;20024;-61
2022/11/11 10:19:22;;;;;;;4.95;2.83;;;21.40;99.90;;;;;;5092628;28;20494;-62
2022/11/11 10:21:53;;;;;;;4.28;2.80;;;21.80;99.90;;;;;;5092545;28;20024;-61
2022/11/11 10:24:44;;;;;;;6.45;3.50;;;20.90;99.90;;;;;;5092609;28;20032;-61
2022/11/11 10:27:29;;;;;;;6.35;3.28;;;20.70;99.90;;;;;;5091886;28;20028;-62
2022/11/11 10:29:56;;;;;;;6.28;3.35;;;21.20;99.90;;;;;;5092084;28;20510;-61
2022/11/11 10:32:26;;;;;;;5.00;2.75;;;21.50;99.90;;;;;;5092033;28;20031;-61
2022/11/11 10:34:52;;;;;;;7.70;3.90;;;21.10;99.90;;;;;;5091910;28;20432;-61
2022/11/11 10:37:26;;;;;;;5.72;2.83;;;21.00;99.90;;;;;;5092031;28;20028;-61
2022/11/11 10:40:05;;;;;;;5.70;3.42;;;22.40;99.90;;;;;;5092627;28;20469;-61
2022/11/11 10:42:31;;;;;;;7.03;4.00;;;21.40;99.90;;;;;;5091886;28;20411;-61
2022/11/11 10:45:00;;;;;;;5.05;3.47;;;21.70;99.90;;;;;;5092404;28;20020;-61
2022/11/11 10:47:46;;;;;;;7.32;3.53;;;22.60;99.90;;;;;;5091864;28;20094;-61
2022/11/11 10:50:20;;;;;;;10.52;4.75;;;21.70;99.90;;;;;;5091609;28;20068;-61
2022/11/11 10:53:04;;;;;;;;;;;22.00;99.90;;;;;;5091259;28;20398;-61
2022/11/11 10:55:48;;;;;;;4.80;3.40;;;21.80;99.90;;;;;;5092184;28;19904;-62
2022/11/11 10:58:13;;;;;;;5.95;2.92;;;20.80;99.90;;;;;;5091926;28;20262;-61
2022/11/11 11:00:42;;;;;;;5.45;2.67;;;20.90;99.90;;;;;;5092149;28;20027;-61
2022/11/11 11:03:26;;;;;;;5.22;2.72;;;20.90;99.90;;;;;;5091380;28;20028;-61
2022/11/11 11:06:01;;;;;;;5.65;3.05;;;20.30;99.90;;;;;;5091649;28;20386;-61
2022/11/11 11:08:33;;;;;;;5.85;3.70;;;20.90;99.90;;;;;;5091766;28;20116;-61
2022/11/11 11:11:08;;;;;;;6.10;4.65;;;21.90;99.90;;;;;;5091655;28;20048;-61
2022/11/11 11:13:44;;;;;;;3.58;2.50;;;20.70;99.90;;;;;;5091666;28;20032;-61
2022/11/11 11:16:21;;;;;;;5.10;2.85;;;20.90;99.90;;;;;;5091824;28;20115;-61
2022/11/11 11:19:18;;;;;;;5.38;2.50;;;20.70;99.90;;;;;;5091278;28;20048;-61
2022/11/11 11:21:47;;;;;;;4.63;2.80;;;20.40;99.90;;;;;;5091657;28;20032;-62
2022/11/11 11:24:23;;;;;;;4.88;2.53;;;21.40;99.90;;;;;;5091420;28;20028;-61
2022/11/11 11:26:55;;;;;;;6.13;3.28;;;21.00;99.90;;;;;;5092007;28;20103;-61
2022/11/11 11:29:44;;;;;;;3.75;2.40;;;19.90;99.90;;;;;;5091421;28;20119;-61
2022/11/11 11:32:23;;;;;;;7.20;3.25;;;19.50;99.90;;;;;;5090728;28;20036;-61
2022/11/11 11:34:51;;;;;;;4.43;2.53;;;19.40;99.90;;;;;;5091303;28;20040;-61
2022/11/11 11:37:19;;;;;;;4.32;2.78;;;19.90;99.90;;;;;;5091511;28;20095;-61
2022/11/11 11:39:45;;;;;;;6.60;2.67;;;19.80;99.90;;;;;;5091333;28;20032;-61
2022/11/11 11:42:35;;;;;;;5.18;2.63;;;19.70;99.90;;;;;;5091632;28;20056;-62
2022/11/11 11:45:23;;;;;;;3.95;2.95;;;20.20;99.90;;;;;;5095367;28;20020;-61
2022/11/11 11:48:05;;;;;;;5.97;2.80;;;21.00;99.90;;;;;;5095057;28;20025;-61
2022/11/11 11:50:33;;;;;;;3.97;2.72;;;20.60;99.90;;;;;;5095345;28;20115;-61
2022/11/11 11:53:46;;;;;;;8.00;2.88;;;20.30;99.90;;;;;;5095310;28;20024;-61
2022/11/11 11:56:18;;;;;;;5.30;3.42;;;20.10;99.90;;;;;;5093376;28;20044;-61
2022/11/11 11:59:08;;;;;;;4.90;3.03;;;19.90;99.90;;;;;;5092719;28;20028;-62
2022/11/11 12:01:53;;;;;;;3.42;2.58;;;19.60;99.90;;;;;;5092630;28;20394;-61
2022/11/11 12:04:27;;;;;;;6.40;3.20;;;19.80;99.90;;;;;;5092934;28;20110;-62
2022/11/11 12:06:55;;;;;;;4.40;2.70;;;20.10;99.90;;;;;;5093114;28;20119;-61
2022/11/11 12:09:39;;;;;;;6.38;3.38;;;19.20;99.90;;;;;;5092505;28;20044;-61
2022/11/11 12:12:19;;;;;;;5.88;2.95;;;19.90;99.90;;;;;;5092640;28;20080;-61
2022/11/11 12:15:29;;;;;;;4.90;2.80;;;19.60;99.90;;;;;;5092586;28;20032;-62
2022/11/11 12:18:32;;;;;;;6.03;2.58;;;19.80;99.90;;;;;;5088606;28;20068;-61
2022/11/11 12:21:01;;;;;;;4.72;2.80;;;19.50;99.90;;;;;;5092444;28;20067;-61
2022/11/11 12:23:45;;;;;;;7.55;2.80;;;19.40;99.90;;;;;;5092508;28;20028;-61
2022/11/11 12:26:22;;;;;;;7.10;3.38;;;19.40;99.90;;;;;;5092294;28;20044;-61
2022/11/11 12:29:26;;;;;;;7.55;3.35;;;19.10;99.90;;;;;;5092145;28;20093;-61
2022/11/11 12:31:58;;;;;;;4.65;3.03;;;19.60;99.90;;;;;;5067554;28;20043;-62
2022/11/11 12:35:00;;;;;;;6.63;3.28;;;19.50;99.90;;;;;;5075450;28;20048;-61
2022/11/11 12:37:52;;;;;;;7.05;4.93;;;19.30;99.90;;;;;;5094438;28;20437;-61
2022/11/11 12:41:08;;;;;;;4.88;2.92;;;18.90;99.90;;;;;;5092415;28;20403;-61
2022/11/11 12:44:09;;;;;;;4.45;3.15;;;19.10;99.90;;;;;;5013203;28;20046;-61
2022/11/11 12:46:46;;;;;;;4.45;3.00;;;19.10;99.90;;;;;;5012959;28;20057;-61
2022/11/11 12:49:30;;;;;;;6.45;3.10;;;19.20;99.90;;;;;;5012556;28;20485;-62
2022/11/11 12:52:23;;;;;;;6.88;3.47;;;18.90;99.90;;;;;;5012813;28;20038;-61
2022/11/11 12:55:31;;;;;;;5.28;2.97;;;19.00;99.90;;;;;;5012215;28;20034;-61
2022/11/11 12:58:31;;;;;;;6.20;2.85;;;19.00;99.90;;;;;;5012483;28;20395;-61
2022/11/11 13:00:57;;;;;;;7.53;3.08;;;19.00;99.90;;;;;;4953461;28;20450;-61
2022/11/11 13:03:39;;;;;;;6.63;2.72;;;19.10;99.90;;;;;;4953738;28;20087;-61
2022/11/11 13:06:26;;;;;;;6.43;2.72;;;19.10;99.90;;;;;;4954113;28;20039;-63
2022/11/11 13:08:54;;;;;;;6.18;2.85;;;19.00;99.90;;;;;;4953336;29;20043;-61
2022/11/11 13:11:41;;;;;;;6.95;2.53;;;18.70;99.90;;;;;;4953279;28;20070;-61
2022/11/11 13:14:21;;;;;;;4.47;2.55;;;18.90;99.90;;;;;;4952938;29;20062;-61
2022/11/11 13:16:49;;;;;;;4.00;2.40;;;18.80;99.90;;;;;;4969624;28;20484;-61
2022/11/11 13:19:40;;;;;;;5.97;2.70;;;19.10;99.90;;;;;;5031167;28;20056;-61
2022/11/11 13:22:14;;;;;;;5.43;2.78;;;19.00;99.90;;;;;;5031188;28;20116;-61
2022/11/11 13:24:40;;;;;;;6.32;2.10;;;18.80;99.90;;;;;;5031253;28;20049;-61
2022/11/11 13:27:27;;;;;;;5.35;2.30;;;19.00;99.90;;;;;;5032103;28;20554;-61
2022/11/11 13:30:10;;;;;;;4.32;2.75;;;18.90;99.90;;;;;;5031115;28;20063;-61
2022/11/11 13:32:49;;;;;;;2.90;2.25;;;19.00;99.90;;;;;;5031132;28;20163;-61
2022/11/11 13:35:28;;;;;;;7.68;2.63;;;18.90;99.90;;;;;;5030862;28;20032;-61
2022/11/11 13:37:54;;;;;;;3.97;2.30;;;18.80;99.90;;;;;;5075949;28;20047;-61
2022/11/11 13:40:42;;;;;;;3.58;2.70;;;18.80;99.90;;;;;;5093418;28;20028;-61
2022/11/11 13:43:21;;;;;;;5.97;2.90;;;18.70;99.90;;;;;;5092898;28;20097;-61
2022/11/11 13:45:53;;;;;;;6.53;2.60;;;18.80;99.90;;;;;;5093762;28;20111;-61
2022/11/11 13:48:27;;;;;;;6.20;2.85;;;18.80;99.90;;;;;;5093105;28;20036;-61
2022/11/11 13:51:09;;;;;;;;;;;18.80;99.90;;;;;;5093989;28;20051;-61
2022/11/11 13:53:37;;;;;;;8.98;7.53;;;18.80;99.90;;;;;;5093084;28;19904;-61
2022/11/11 13:56:05;;;;;;;6.22;4.07;;;18.80;99.90;;;;;;5092947;28;20499;-61
2022/11/11 13:58:37;;;;;;;4.72;2.58;;;18.80;99.90;;;;;;5092896;28;20059;-61
2022/11/11 14:01:06;;;;;;;6.78;2.58;;;18.70;99.90;;;;;;5092857;28;20036;-61
2022/11/11 14:03:56;;;;;;;3.90;2.42;;;18.70;99.90;;;;;;5092849;28;20494;-61
2022/11/11 14:06:30;;;;;;;5.90;3.63;;;18.80;99.90;;;;;;5092834;28;20494;-62
2022/11/11 14:08:56;;;;;;;4.57;2.67;;;18.80;99.90;;;;;;5092682;28;20553;-61
2022/11/11 14:11:24;;;;;;;4.75;2.65;;;18.80;99.90;;;;;;5092160;28;20056;-61
2022/11/11 14:13:57;;;;;;;5.53;2.63;;;18.80;99.90;;;;;;5092709;28;20085;-61